Flight Track Log - Related Links

Times and Time Zones

All times are in EDT time to prevent confusion due to time zone crossing. See the DAL10 flight status page for this flight to view local times or setup timezone preferences in your user account.

Time Position Orientation Groundspeed Altitude Reporting Facility
EDT Latitude Longitude Course Direction KTS MPH feet Rate Location/Type
Tue 07:21:59 PM 39.0333 -84.6667 360° North 151 174 1,600  Level Cincinnati TRACON
Tue 07:22:06 PM 39.0333 -84.6667 180° South 151 174 2,000 2,149 Climbing Cincinnati TRACON
Tue 07:23:06 PM 38.9833 -84.6667 180° South 235 270 4,000 2,700 Climbing Cincinnati TRACON
Tue 07:24:06 PM 38.9167 -84.6833 191° South 261 300 7,400 3,288 Climbing Cincinnati TRACON
Tue 07:24:50 PM 38.8683 -84.7089 202° Southwest 248 285 9,700 2,321 Climbing Indianapolis Center
Tue 07:25:52 PM 38.7994 -84.7575 209° Southwest 283 326 11,500 2,049 Climbing Indianapolis Center
Tue 07:26:53 PM 38.7142 -84.8161 208° Southwest 343 395 13,900 2,341 Climbing Indianapolis Center
Tue 07:27:55 PM 38.6306 -84.8983 218° Southwest 384 442 16,300 2,468 Climbing Indianapolis Center
Tue 07:28:57 PM 38.5408 -85.0125 225° Southwest 392 451 19,000 2,439 Climbing Indianapolis Center
Tue 07:29:58 PM 38.4614 -85.1183 226° Southwest 408 470 21,300 1,951 Climbing Indianapolis Center
Tue 07:31:00 PM 38.3853 -85.2183 226° Southwest 417 480 23,000 1,694 Climbing Indianapolis Center
Tue 07:32:02 PM 38.3006 -85.3283 226° Southwest 429 494 24,800 2,098 Climbing Indianapolis Center
Tue 07:33:03 PM 38.2072 -85.4283 220° Southwest 435 501 27,300 2,439 Climbing Indianapolis Center
Tue 07:34:05 PM 38.1069 -85.5089 212° Southwest 424 488 29,800 1,935 Climbing Indianapolis Center
Tue 07:35:07 PM 38.0119 -85.5861 213° Southwest 406 467 31,300 1,463 Climbing Indianapolis Center
Tue 07:36:08 PM 37.8956 -85.6822 213° Southwest 412 474 32,800 1,317 Climbing Indianapolis Center
Tue 07:37:10 PM 37.7983 -85.7603 212° Southwest 411 473 34,000 1,065 Climbing Indianapolis Center
Tue 07:38:12 PM 37.7014 -85.8375 212° Southwest 411 473 35,000 976 Climbing Indianapolis Center
Tue 07:39:13 PM 37.6042 -85.9136 212° Southwest 409 471 36,000 829 Climbing Indianapolis Center
Tue 07:40:15 PM 37.4994 -85.9950 212° Southwest 407 468 36,700 484 Climbing Indianapolis Center
Tue 07:41:17 PM 37.4019 -86.0675 211° Southwest 404 465 37,000 144 Climbing Indianapolis Center
Tue 07:42:20 PM 37.2978 -86.1461 211° Southwest 407 468 37,000 -194 Level Memphis Center
Tue 07:43:21 PM 37.2006 -86.2217 212° Southwest 407 468 36,600 -645 Descending Memphis Center
Tue 07:44:21 PM 37.1050 -86.2969 212° Southwest 412 474 35,700 -807 Descending Memphis Center
Tue 07:45:20 PM 36.9933 -86.3233 191° South 404 465 35,000 -350 Descending Memphis Center
Tue 07:46:21 PM 36.8747 -86.3267 181° South 420 483 35,000  Level Memphis Center
Tue 07:47:21 PM 36.7539 -86.3328 182° South 432 497 35,000  Level Memphis Center
Tue 07:48:21 PM 36.6353 -86.3386 182° South 437 503 35,000  Level Memphis Center
Tue 07:49:20 PM 36.5272 -86.3442 182° South 437 503 35,000 -555 Level Memphis Center
Tue 07:50:20 PM 36.4086 -86.3472 181° South 437 503 33,900 -992 Descending Memphis Center
Tue 07:51:21 PM 36.2858 -86.3533 182° South 437 503 33,000 -450 Descending Memphis Center
Tue 07:52:20 PM 36.1647 -86.3542 180° South 437 503 33,000  Level Memphis Center
Tue 07:53:20 PM 36.0336 -86.3606 182° South 437 503 33,000  Level Memphis Center
Tue 07:54:21 PM 35.9128 -86.3639 181° South 437 503 33,000  Level Memphis Center
Tue 07:56:06 PM 35.7156 -86.3433 175° South 453 521 33,000  Level Atlanta Center
Tue 07:57:06 PM 35.6086 -86.2583 147° Southeast 442 509 33,000  Level Atlanta Center
Tue 07:58:06 PM 35.5058 -86.1742 146° Southeast 444 511 33,000  Level Atlanta Center
Tue 07:59:06 PM 35.4008 -86.0897 147° Southeast 454 522 33,000  Level Atlanta Center
Tue 08:00:06 PM 35.2936 -86.0058 147° Southeast 460 529 33,000 50 Level Atlanta Center
Tue 08:01:06 PM 35.1783 -85.9117 146° Southeast 460 529 33,100 -550 Climbing Atlanta Center
Tue 08:02:06 PM 35.0750 -85.8356 149° Southeast 449 517 31,900 -1,200 Descending Atlanta Center
Tue 08:03:06 PM 34.9697 -85.7522 147° Southeast 449 517 30,700 -1,200 Descending Atlanta Center
Tue 08:04:06 PM 34.8667 -85.6717 147° Southeast 449 517 29,500 -1,150 Descending Atlanta Center
Tue 08:05:06 PM 34.7611 -85.5911 148° Southeast 449 517 28,400 -1,950 Descending Atlanta Center
Tue 08:06:06 PM 34.6539 -85.5058 147° Southeast 449 517 25,600 -2,850 Descending Atlanta Center
Tue 08:07:06 PM 34.5525 -85.4258 147° Southeast 449 517 22,700 -2,750 Descending Atlanta Center
Tue 08:08:06 PM 34.4511 -85.3486 148° Southeast 444 511 20,100 -2,450 Descending Atlanta Center
Tue 08:09:06 PM 34.3578 -85.2717 146° Southeast 428 493 17,800 -2,300 Descending Atlanta Center
Tue 08:10:06 PM 34.2689 -85.2050 148° Southeast 393 452 15,500 -2,150 Descending Atlanta Center
Tue 08:11:06 PM 34.1817 -85.1386 148° Southeast 380 437 13,500 -1,250 Descending Atlanta Center
Tue 08:12:06 PM 34.1136 -85.0625 137° Southeast 349 402 13,000 -400 Descending Atlanta Center
Tue 08:13:06 PM 34.0514 -84.9942 138° Southeast 318 366 12,700 -1,100 Descending Atlanta Center
Tue 08:14:06 PM 33.9767 -84.9556 157° South 293 337 10,800 -1,750 Descending Atlanta Center
Tue 08:15:06 PM 33.9017 -84.9197 158° South 293 337 9,200 -900 Descending Atlanta Center
Tue 08:16:06 PM 33.8225 -84.9214 181° South 283 326 9,000 -350 Descending Atlanta Center
Tue 08:17:06 PM 33.7453 -84.9083 172° South 283 326 8,500 -950 Descending Atlanta Center
Tue 08:18:06 PM 33.6789 -84.8550 146° Southeast 276 318 7,100 -950 Descending Atlanta Center
Tue 08:19:06 PM 33.6375 -84.7847 125° Southeast 254 292 6,600 -650 Descending Atlanta Center
Tue 08:20:06 PM 33.6294 -84.7175 98° East 226 260 5,800 -1,145 Descending Atlanta Center
Tue 08:21:17 PM 33.6333 -84.6167 87° East 208 239 4,100 -1,420 Descending Atlanta TRACON
Tue 08:22:17 PM 33.6333 -84.5500 90° East 186 214 2,700 -1,100 Descending Atlanta TRACON
Tue 08:23:17 PM 33.6333 -84.5000 90° East 142 163 1,900 -700 Descending Atlanta TRACON
Tue 08:24:17 PM 33.6333 -84.4667 90° East 130 150 1,300 -600 Descending Atlanta TRACON
Tue 08:26:00 PM 33.6367 -84.4279 North  Level Estimated
Tue 08:33:00 PM 33.6367 -84.4279 North  Level Estimated

Login

Don't have an account? Register now (free) for customized features, flight alerts, and more!